Time;durP1;ratioP1;P1;durP2;ratioP2;P2;SDS_P1;SDS_P2;PMS_P1;PMS_P2;Temp;Humidity;BMP_temperature;BMP_pressure;BME280_temperature;BME280_humidity;BME280_pressure;Samples;Min_cycle;Max_cycle;Signal;HPM_P1;HPM_P2
2022/12/27 00:01:29;;;;;;;16.48;12.05;;;;;;;;;;5075249;28;20107;-73
2022/12/27 00:03:55;;;;;;;16.48;12.68;;;;;;;;;;5075508;28;20047;-73
2022/12/27 00:06:22;;;;;;;14.77;12.00;;;;;;;;;;5075303;28;20029;-72
2022/12/27 00:08:48;;;;;;;14.77;12.07;;;;;;;;;;5075479;28;20127;-72
2022/12/27 00:11:15;;;;;;;15.13;11.88;;;;;;;;;;5075221;28;20127;-72
2022/12/27 00:13:40;;;;;;;16.00;12.35;;;;;;;;;;5075098;28;20123;-72
2022/12/27 00:16:07;;;;;;;14.93;11.75;;;;;;;;;;5074974;28;20068;-72
2022/12/27 00:18:33;;;;;;;15.38;11.95;;;;;;;;;;5074941;28;20094;-72
2022/12/27 00:20:59;;;;;;;13.52;10.77;;;;;;;;;;5075038;28;20032;-72
2022/12/27 00:23:25;;;;;;;15.20;11.70;;;;;;;;;;5074279;28;20124;-69
2022/12/27 00:25:51;;;;;;;16.42;11.38;;;;;;;;;;5074975;28;20070;-68
2022/12/27 00:28:16;;;;;;;17.88;12.65;;;;;;;;;;5056881;28;20040;-68
2022/12/27 00:30:42;;;;;;;16.63;11.60;;;;;;;;;;5074398;28;20059;-70
2022/12/27 00:33:07;;;;;;;15.82;10.98;;;;;;;;;;5074495;28;20029;-69
2022/12/27 00:35:32;;;;;;;10.48;7.82;;;;;;;;;;5056848;28;20043;-70
2022/12/27 00:37:58;;;;;;;13.82;10.10;;;;;;;;;;5074868;28;20059;-70
2022/12/27 00:40:23;;;;;;;12.52;9.27;;;;;;;;;;5057128;28;20033;-70
2022/12/27 00:42:48;;;;;;;10.30;7.30;;;;;;;;;;5056814;28;20036;-70
2022/12/27 00:45:14;;;;;;;11.00;8.73;;;;;;;;;;5074495;28;20024;-70
2022/12/27 00:47:39;;;;;;;9.80;7.82;;;;;;;;;;5074710;28;20035;-69
2022/12/27 00:50:04;;;;;;;11.05;8.02;;;;;;;;;;5074321;28;20037;-68
2022/12/27 00:52:30;;;;;;;7.45;5.80;;;;;;;;;;5074491;28;20036;-72
2022/12/27 00:54:55;;;;;;;8.93;7.20;;;;;;;;;;5074319;28;20152;-72
2022/12/27 00:57:20;;;;;;;7.90;6.53;;;;;;;;;;5074416;28;20036;-72
2022/12/27 00:59:46;;;;;;;6.43;5.70;;;;;;;;;;5074302;28;20049;-72
2022/12/27 01:02:11;;;;;;;9.02;6.80;;;;;;;;;;5074072;28;20053;-72
2022/12/27 01:04:39;;;;;;;8.13;6.68;;;;;;;;;;5056489;28;20068;-72
2022/12/27 01:07:04;;;;;;;7.00;6.18;;;;;;;;;;5074133;28;20032;-72
2022/12/27 01:09:29;;;;;;;7.60;6.40;;;;;;;;;;5074166;28;20047;-72
2022/12/27 01:11:54;;;;;;;8.13;5.95;;;;;;;;;;5074100;28;20040;-72
2022/12/27 01:14:21;;;;;;;5.97;5.38;;;;;;;;;;5056187;28;20131;-72
2022/12/27 01:16:47;;;;;;;6.38;5.68;;;;;;;;;;5073997;28;20037;-72
2022/12/27 01:19:13;;;;;;;7.55;6.20;;;;;;;;;;5056016;28;20495;-72
2022/12/27 01:21:39;;;;;;;6.97;5.22;;;;;;;;;;5074163;28;20037;-72
2022/12/27 01:24:04;;;;;;;6.43;5.40;;;;;;;;;;5073907;28;20102;-72
2022/12/27 01:26:30;;;;;;;7.45;5.95;;;;;;;;;;5056209;28;20036;-73
2022/12/27 01:28:55;;;;;;;5.40;4.63;;;;;;;;;;5074208;28;20060;-72
2022/12/27 01:31:23;;;;;;;4.45;4.10;;;;;;;;;;5073861;28;20037;-72
2022/12/27 01:33:52;;;;;;;5.72;4.30;;;;;;;;;;5073877;28;20086;-72
2022/12/27 01:36:19;;;;;;;4.13;3.72;;;;;;;;;;5073921;28;20040;-72
2022/12/27 01:38:46;;;;;;;4.95;4.40;;;;;;;;;;5073791;28;20074;-72
2022/12/27 01:44:00;;;;;;;6.25;4.40;;;;;;;;;;5073774;28;20056;-73
2022/12/27 01:46:26;;;;;;;3.60;3.30;;;;;;;;;;5073760;28;20032;-73
2022/12/27 01:48:51;;;;;;;4.57;3.63;;;;;;;;;;5055963;28;20472;-73
2022/12/27 01:51:17;;;;;;;4.15;3.75;;;;;;;;;;5073783;28;20044;-73
2022/12/27 01:53:45;;;;;;;5.47;4.43;;;;;;;;;;5055747;28;20044;-73
2022/12/27 01:56:15;;;;;;;6.30;4.47;;;;;;;;;;5073827;28;20040;-73
2022/12/27 01:58:51;;;;;;;4.87;4.37;;;;;;;;;;5073468;28;20127;-72
2022/12/27 02:01:21;;;;;;;5.15;4.63;;;;;;;;;;5073653;28;20274;-72
2022/12/27 02:03:49;;;;;;;6.35;5.20;;;;;;;;;;5073364;28;20044;-72
2022/12/27 02:06:15;;;;;;;6.60;4.80;;;;;;;;;;5073636;28;20032;-73
2022/12/27 02:08:59;;;;;;;7.07;6.10;;;;;;;;;;5073557;28;20072;-73
2022/12/27 02:14:12;;;;;;;7.35;6.00;;;;;;;;;;5073673;28;20048;-72
2022/12/27 02:16:37;;;;;;;5.97;4.85;;;;;;;;;;5073298;28;20078;-72
2022/12/27 02:19:06;;;;;;;6.57;5.10;;;;;;;;;;5073121;28;20039;-72
2022/12/27 02:21:54;;;;;;;4.95;4.32;;;;;;;;;;5073361;28;20037;-72
2022/12/27 02:24:39;;;;;;;6.43;5.82;;;;;;;;;;5073268;28;20120;-73
2022/12/27 02:27:07;;;;;;;5.70;5.03;;;;;;;;;;5055677;28;20028;-73
2022/12/27 02:29:42;;;;;;;6.28;5.00;;;;;;;;;;5073293;28;20029;-73
2022/12/27 02:32:08;;;;;;;5.72;5.15;;;;;;;;;;5073379;28;20048;-73
2022/12/27 02:34:37;;;;;;;6.28;4.95;;;;;;;;;;5073136;28;20477;-73
2022/12/27 02:37:06;;;;;;;4.70;3.75;;;;;;;;;;5073002;28;20021;-73
2022/12/27 02:39:33;;;;;;;4.40;4.00;;;;;;;;;;5073345;28;20475;-73
2022/12/27 02:53:03;;;;;;;4.65;3.70;;;;;;;;;;5076762;28;20040;-73
2022/12/27 02:58:39;;;;;;;4.03;3.47;;;;;;;;;;5076486;28;20064;-73
2022/12/27 03:04:16;;;;;;;3.53;3.33;;;;;;;;;;5076876;28;20044;-72
2022/12/27 03:06:51;;;;;;;4.88;3.53;;;;;;;;;;5076419;28;20032;-73
2022/12/27 03:18:33;;;;;;;3.65;3.10;;;;;;;;;;5075965;28;20132;-73
2022/12/27 03:26:30;;;;;;;2.92;2.35;;;;;;;;;;5076189;28;20476;-73
2022/12/27 03:34:34;;;;;;;2.03;1.92;;;;;;;;;;5076371;28;20056;-68
2022/12/27 03:40:04;;;;;;;2.10;1.90;;;;;;;;;;5076193;28;20102;-68
2022/12/27 03:45:16;;;;;;;1.23;1.13;;;;;;;;;;5076260;28;20036;-68
2022/12/27 03:47:46;;;;;;;1.60;1.50;;;;;;;;;;5076028;28;20028;-68
2022/12/27 03:50:15;;;;;;;1.20;1.10;;;;;;;;;;5075795;28;20119;-68
2022/12/27 03:52:47;;;;;;;3.40;1.35;;;;;;;;;;5076046;28;20043;-70
2022/12/27 03:55:13;;;;;;;1.30;1.15;;;;;;;;;;5076001;28;20079;-70
2022/12/27 03:57:39;;;;;;;3.03;1.23;;;;;;;;;;5074726;28;20083;-71
2022/12/27 04:00:05;;;;;;;1.25;1.13;;;;;;;;;;5075842;28;20111;-70
2022/12/27 04:02:38;;;;;;;1.60;1.00;;;;;;;;;;5085679;28;20044;-71
2022/12/27 04:05:03;;;;;;;1.35;1.00;;;;;;;;;;5096039;28;20043;-71
2022/12/27 04:07:29;;;;;;;1.13;1.00;;;;;;;;;;5095675;28;20418;-71
2022/12/27 04:34:42;;;;;;;1.30;0.98;;;;;;;;;;5095428;28;20047;-70
2022/12/27 04:37:08;;;;;;;0.98;0.95;;;;;;;;;;5095605;28;20126;-69
2022/12/27 04:39:35;;;;;;;1.05;1.05;;;;;;;;;;5094993;28;20076;-70
2022/12/27 04:55:59;;;;;;;1.15;1.05;;;;;;;;;;5094920;28;20072;-71
2022/12/27 04:58:24;;;;;;;1.42;0.90;;;;;;;;;;5094722;28;20082;-71
2022/12/27 05:03:34;;;;;;;0.85;0.70;;;;;;;;;;5094957;28;20105;-72
2022/12/27 05:05:59;;;;;;;0.95;0.80;;;;;;;;;;5094524;28;20032;-72
2022/12/27 05:13:58;;;;;;;0.90;0.73;;;;;;;;;;5094388;28;20036;-71
2022/12/27 05:16:27;;;;;;;1.05;0.82;;;;;;;;;;5094790;28;20438;-72
2022/12/27 05:18:52;;;;;;;0.75;0.75;;;;;;;;;;5094147;28;20476;-72
2022/12/27 05:21:17;;;;;;;0.63;0.63;;;;;;;;;;5094842;28;20039;-72
2022/12/27 05:26:28;;;;;;;0.40;0.40;;;;;;;;;;5076223;28;20043;-72
2022/12/27 05:28:54;;;;;;;0.30;0.30;;;;;;;;;;5094750;28;20149;-72
2022/12/27 05:31:21;;;;;;;0.35;0.35;;;;;;;;;;5093771;28;20055;-71
2022/12/27 05:33:47;;;;;;;0.65;0.45;;;;;;;;;;5094049;28;20093;-71
2022/12/27 05:36:13;;;;;;;1.35;0.40;;;;;;;;;;5094682;28;20032;-71
2022/12/27 05:38:39;;;;;;;0.40;0.40;;;;;;;;;;5094340;28;20417;-71
2022/12/27 05:41:05;;;;;;;0.43;0.43;;;;;;;;;;5094379;28;20499;-71
2022/12/27 05:43:31;;;;;;;0.20;0.20;;;;;;;;;;5093516;28;20135;-71
2022/12/27 05:46:01;;;;;;;0.30;0.30;;;;;;;;;;5059122;28;20040;-72
2022/12/27 05:48:27;;;;;;;0.30;0.30;;;;;;;;;;5075553;28;20422;-70
2022/12/27 05:50:52;;;;;;;0.25;0.25;;;;;;;;;;5094014;28;20038;-71
2022/12/27 05:53:18;;;;;;;1.77;0.40;;;;;;;;;;5094068;28;20063;-73
2022/12/27 05:55:43;;;;;;;0.38;0.38;;;;;;;;;;5093889;28;20123;-74
2022/12/27 05:58:09;;;;;;;1.42;0.40;;;;;;;;;;5075944;28;20094;-74
2022/12/27 06:00:34;;;;;;;1.00;0.43;;;;;;;;;;5094170;28;20444;-74
2022/12/27 06:03:00;;;;;;;0.60;0.60;;;;;;;;;;5093812;28;20079;-73
2022/12/27 06:05:26;;;;;;;1.08;0.70;;;;;;;;;;5094188;28;20427;-73
2022/12/27 06:07:51;;;;;;;0.77;0.70;;;;;;;;;;5093671;28;20067;-73
2022/12/27 06:10:17;;;;;;;1.58;0.70;;;;;;;;;;5075155;28;20028;-73
2022/12/27 06:12:42;;;;;;;2.00;0.80;;;;;;;;;;5092662;28;20086;-73
2022/12/27 06:15:08;;;;;;;1.52;0.70;;;;;;;;;;5093170;28;20533;-73
2022/12/27 06:17:33;;;;;;;1.13;0.80;;;;;;;;;;5074791;28;20467;-74
2022/12/27 06:19:59;;;;;;;2.45;0.80;;;;;;;;;;5092537;28;20105;-74
2022/12/27 06:22:24;;;;;;;1.17;0.77;;;;;;;;;;5096027;28;20689;-74
2022/12/27 06:24:52;;;;;;;2.35;1.00;;;;;;;;;;5096312;28;20134;-74
2022/12/27 06:27:17;;;;;;;2.13;0.77;;;;;;;;;;5089930;28;20036;-75
2022/12/27 06:29:43;;;;;;;2.75;1.00;;;;;;;;;;5075801;28;20040;-74
2022/12/27 06:32:08;;;;;;;2.20;1.00;;;;;;;;;;5057513;28;20483;-74
2022/12/27 06:34:33;;;;;;;2.22;1.00;;;;;;;;;;5076061;28;20037;-74
2022/12/27 06:36:59;;;;;;;1.45;0.70;;;;;;;;;;5076083;28;20028;-74
2022/12/27 06:39:25;;;;;;;1.30;0.98;;;;;;;;;;5075799;28;20040;-73
2022/12/27 06:41:53;;;;;;;2.65;1.40;;;;;;;;;;5042139;28;20380;-73
2022/12/27 06:44:19;;;;;;;3.08;1.10;;;;;;;;;;5075996;28;20040;-72
2022/12/27 06:50:20;;;;;;;2.25;1.42;;;;;;;;;;5076952;28;20035;-73
2022/12/27 06:55:52;;;;;;;2.33;1.10;;;;;;;;;;5075494;28;20036;-73
2022/12/27 06:58:17;;;;;;;2.03;1.20;;;;;;;;;;5058226;28;20069;-73
2022/12/27 07:00:42;;;;;;;2.20;1.30;;;;;;;;;;5058207;28;20041;-73
2022/12/27 07:03:08;;;;;;;3.80;1.17;;;;;;;;;;5076018;28;20040;-73
2022/12/27 07:05:34;;;;;;;2.03;1.10;;;;;;;;;;5075808;28;20033;-73
2022/12/27 07:07:59;;;;;;;3.00;1.02;;;;;;;;;;5076165;28;20648;-73
2022/12/27 07:10:24;;;;;;;3.50;1.25;;;;;;;;;;5058572;28;20472;-73
2022/12/27 07:12:50;;;;;;;3.50;1.45;;;;;;;;;;5075826;28;20033;-73
2022/12/27 07:18:51;;;;;;;5.38;1.73;;;;;;;;;;5076311;28;20042;-72
2022/12/27 07:24:51;;;;;;;3.80;1.30;;;;;;;;;;5076103;28;20102;-72
2022/12/27 07:30:51;;;;;;;2.17;1.20;;;;;;;;;;5076008;28;20035;-72
2022/12/27 07:33:37;;;;;;;1.88;1.30;;;;;;;;;;5057833;28;20131;-72
2022/12/27 07:39:37;;;;;;;2.65;0.95;;;;;;;;;;5075883;28;20059;-72
2022/12/27 07:45:37;;;;;;;2.53;1.17;;;;;;;;;;5075923;28;20039;-72
2022/12/27 07:51:37;;;;;;;2.90;1.20;;;;;;;;;;5075831;28;20031;-72
2022/12/27 07:57:37;;;;;;;3.05;1.33;;;;;;;;;;5075731;28;20155;-72
2022/12/27 08:07:25;;;;;;;3.58;1.60;;;;;;;;;;5075602;28;20096;-72
2022/12/27 08:13:26;;;;;;;2.63;1.27;;;;;;;;;;5075424;28;20591;-72
2022/12/27 08:15:52;;;;;;;5.63;1.60;;;;;;;;;;5073989;28;20071;-72
2022/12/27 08:18:17;;;;;;;1.92;1.15;;;;;;;;;;5074338;28;20035;-72
2022/12/27 08:30:58;;;;;;;3.70;1.42;;;;;;;;;;5075078;28;20158;-72
2022/12/27 08:36:58;;;;;;;3.78;1.40;;;;;;;;;;5074658;28;20055;-72
2022/12/27 08:42:58;;;;;;;2.53;1.52;;;;;;;;;;5074640;28;20033;-72
2022/12/27 08:48:58;;;;;;;2.35;1.08;;;;;;;;;;5074449;28;20108;-72
2022/12/27 08:55:00;;;;;;;2.55;1.27;;;;;;;;;;5074629;28;20032;-72
2022/12/27 09:01:07;;;;;;;3.25;1.05;;;;;;;;;;5074371;28;20090;-72
2022/12/27 09:11:07;;;;;;;3.17;1.50;;;;;;;;;;5074155;28;19962;-72
2022/12/27 09:17:08;;;;;;;3.05;1.65;;;;;;;;;;5073840;28;20399;-72
2022/12/27 09:23:09;;;;;;;2.55;1.40;;;;;;;;;;5074014;28;20482;-72
2022/12/27 09:29:10;;;;;;;2.63;1.52;;;;;;;;;;5074082;28;20106;-72
2022/12/27 09:35:10;;;;;;;6.90;1.60;;;;;;;;;;5074032;28;20502;-72
2022/12/27 09:41:17;;;;;;;3.03;1.50;;;;;;;;;;5073911;28;20055;-72
2022/12/27 09:47:24;;;;;;;3.33;1.58;;;;;;;;;;5073859;28;20063;-72
2022/12/27 09:53:46;;;;;;;3.22;1.52;;;;;;;;;;5073829;28;20019;-72
2022/12/27 09:59:48;;;;;;;1.73;1.33;;;;;;;;;;5073427;28;20083;-72
2022/12/27 10:10:01;;;;;;;3.35;1.55;;;;;;;;;;5073356;28;20490;-72
2022/12/27 10:26:44;;;;;;;2.15;1.27;;;;;;;;;;5011819;28;20104;-72
2022/12/27 10:32:44;;;;;;;4.30;1.40;;;;;;;;;;5011763;28;20092;-72
2022/12/27 10:38:45;;;;;;;2.47;1.20;;;;;;;;;;5011502;28;20069;-72
2022/12/27 10:44:45;;;;;;;4.03;1.35;;;;;;;;;;5011705;28;20036;-72
2022/12/27 10:50:45;;;;;;;2.75;1.45;;;;;;;;;;5057710;28;20120;-72
2022/12/27 10:53:29;;;;;;;3.60;1.77;;;;;;;;;;5073217;28;20056;-74
2022/12/27 10:59:30;;;;;;;2.75;1.25;;;;;;;;;;5072944;28;20040;-71
2022/12/27 11:05:32;;;;;;;2.25;1.30;;;;;;;;;;5072858;28;20027;-71
2022/12/27 11:11:46;;;;;;;4.88;1.45;;;;;;;;;;5076643;28;20055;-71
2022/12/27 11:14:15;;;;;;;3.38;1.40;;;;;;;;;;5074528;28;20029;-71
2022/12/27 11:16:40;;;;;;;2.20;1.30;;;;;;;;;;5075220;28;20040;-71
2022/12/27 11:19:18;;;;;;;2.55;1.30;;;;;;;;;;5075037;28;20499;-71
2022/12/27 11:21:43;;;;;;;3.05;1.33;;;;;;;;;;5075094;28;20550;-71
2022/12/27 11:24:12;;;;;;;4.18;1.73;;;;;;;;;;5074909;28;20032;-71
2022/12/27 11:41:12;;;;;;;3.45;1.50;;;;;;;;;;5075802;28;20067;-71
2022/12/27 11:47:31;;;;;;;2.25;1.55;;;;;;;;;;5075997;28;20095;-72
2022/12/27 11:53:37;;;;;;;1.77;1.00;;;;;;;;;;5075807;28;20071;-72
2022/12/27 12:07:08;;;;;;;2.10;1.10;;;;;;;;;;5023688;28;20027;-72
2022/12/27 12:09:39;;;;;;;1.52;1.10;;;;;;;;;;5032983;28;20111;-72
2022/12/27 12:12:04;;;;;;;2.50;1.05;;;;;;;;;;5033230;28;20041;-72
2022/12/27 12:14:32;;;;;;;2.78;1.73;;;;;;;;;;5033102;28;20052;-73
2022/12/27 12:17:09;;;;;;;2.35;1.50;;;;;;;;;;5032675;28;20478;-73
2022/12/27 12:19:52;;;;;;;3.25;1.33;;;;;;;;;;5015789;28;20528;-72
2022/12/27 12:22:36;;;;;;;2.63;1.38;;;;;;;;;;5033597;28;20459;-72
2022/12/27 12:25:08;;;;;;;2.65;1.55;;;;;;;;;;5033081;28;20531;-73
2022/12/27 12:27:52;;;;;;;3.88;1.67;;;;;;;;;;5033291;28;20524;-73
2022/12/27 12:30:25;;;;;;;3.13;1.77;;;;;;;;;;5016664;28;20053;-72
2022/12/27 12:36:43;;;;;;;2.53;1.27;;;;;;;;;;5074775;28;20043;-73
2022/12/27 12:47:37;;;;;;;2.72;1.70;;;;;;;;;;5074819;28;20059;-72
2022/12/27 12:54:00;;;;;;;1.63;1.27;;;;;;;;;;5074535;28;20095;-72
2022/12/27 12:59:48;;;;;;;7.10;3.58;;;;;;;;;;5074601;28;20108;-72
2022/12/27 13:02:30;;;;;;;9.10;3.65;;;;;;;;;;5074375;28;20048;-72
2022/12/27 13:05:02;;;;;;;2.17;1.42;;;;;;;;;;5074377;28;20060;-72
2022/12/27 13:07:28;;;;;;;2.47;1.80;;;;;;;;;;5074021;28;20110;-72
2022/12/27 13:10:16;;;;;;;2.65;1.67;;;;;;;;;;5074106;28;20071;-72
2022/12/27 13:16:17;;;;;;;2.45;1.58;;;;;;;;;;5074059;28;20082;-72
2022/12/27 13:18:47;;;;;;;2.08;1.70;;;;;;;;;;5074041;28;20044;-72
2022/12/27 13:21:15;;;;;;;4.07;1.75;;;;;;;;;;5074189;28;20029;-72
2022/12/27 13:23:44;;;;;;;4.78;2.40;;;;;;;;;;5055981;28;20024;-72
2022/12/27 13:29:54;;;;;;;3.63;2.08;;;;;;;;;;5073645;28;20031;-72
2022/12/27 13:36:01;;;;;;;3.13;1.90;;;;;;;;;;5073791;28;20079;-72
2022/12/27 13:38:35;;;;;;;3.78;1.85;;;;;;;;;;5032557;28;20029;-72
2022/12/27 13:41:39;;;;;;;5.15;2.08;;;;;;;;;;5015800;28;20669;-72
2022/12/27 13:44:08;;;;;;;3.28;2.03;;;;;;;;;;4972543;28;20046;-72
2022/12/27 13:46:42;;;;;;;2.53;1.85;;;;;;;;;;4972648;28;20510;-72
2022/12/27 13:49:26;;;;;;;2.15;1.80;;;;;;;;;;5004866;28;20049;-72
2022/12/27 13:51:54;;;;;;;2.08;1.58;;;;;;;;;;5030567;28;20036;-73
2022/12/27 13:54:40;;;;;;;2.13;1.60;;;;;;;;;;5072796;28;20491;-74
2022/12/27 13:57:05;;;;;;;2.72;1.85;;;;;;;;;;5055637;28;20072;-74
2022/12/27 13:59:49;;;;;;;2.30;1.77;;;;;;;;;;5073206;28;20106;-74
2022/12/27 14:02:38;;;;;;;3.03;1.80;;;;;;;;;;5073422;28;20430;-75
2022/12/27 14:05:22;;;;;;;3.72;1.80;;;;;;;;;;5072733;28;20040;-74
2022/12/27 14:08:14;;;;;;;2.00;1.70;;;;;;;;;;5092070;28;20032;-74
2022/12/27 14:10:43;;;;;;;2.63;1.88;;;;;;;;;;5093614;28;20055;-75
2022/12/27 14:13:09;;;;;;;5.57;2.03;;;;;;;;;;5093282;28;20539;-74
2022/12/27 14:15:35;;;;;;;3.50;2.17;;;;;;;;;;5093419;28;20032;-74
2022/12/27 14:18:18;;;;;;;5.88;2.00;;;;;;;;;;5093369;28;20031;-74
2022/12/27 14:20:43;;;;;;;6.07;2.42;;;;;;;;;;5092569;28;20109;-72
2022/12/27 14:23:27;;;;;;;5.05;2.63;;;;;;;;;;5077907;28;20496;-75
2022/12/27 14:26:11;;;;;;;5.20;2.47;;;;;;;;;;5073261;28;20040;-74
2022/12/27 14:28:55;;;;;;;3.95;2.15;;;;;;;;;;5073270;28;20106;-70
2022/12/27 14:31:20;;;;;;;4.20;2.42;;;;;;;;;;5073019;28;20036;-72
2022/12/27 14:33:52;;;;;;;4.28;2.65;;;;;;;;;;5071741;28;20095;-72
2022/12/27 14:36:17;;;;;;;3.80;2.53;;;;;;;;;;5071622;28;20702;-71
2022/12/27 14:38:45;;;;;;;4.88;2.80;;;;;;;;;;5072483;28;20128;-71
2022/12/27 14:41:29;;;;;;;10.07;4.10;;;;;;;;;;5072590;28;20396;-72
2022/12/27 14:44:14;;;;;;;4.72;3.22;;;;;;;;;;5076508;28;20047;-72
2022/12/27 14:46:48;;;;;;;5.47;3.35;;;;;;;;;;5076617;28;20036;-72
2022/12/27 14:49:23;;;;;;;3.40;3.10;;;;;;;;;;5076449;28;20383;-72
2022/12/27 14:51:57;;;;;;;6.07;3.25;;;;;;;;;;5075177;28;20040;-71
2022/12/27 14:54:42;;;;;;;6.13;3.50;;;;;;;;;;5075209;28;20044;-72
2022/12/27 14:57:23;;;;;;;4.45;3.58;;;;;;;;;;5076429;28;20120;-72
2022/12/27 14:59:55;;;;;;;6.93;3.28;;;;;;;;;;5076235;28;20062;-72
2022/12/27 15:02:20;;;;;;;2.97;2.20;;;;;;;;;;5076383;28;20025;-72
2022/12/27 15:05:06;;;;;;;4.13;2.60;;;;;;;;;;5074648;28;20515;-72
2022/12/27 15:07:50;;;;;;;5.00;2.72;;;;;;;;;;5092853;28;20048;-72
2022/12/27 15:10:22;;;;;;;6.85;3.47;;;;;;;;;;5096413;28;20480;-72
2022/12/27 15:13:06;;;;;;;4.65;3.08;;;;;;;;;;5096319;28;20040;-72
2022/12/27 15:15:43;;;;;;;2.78;2.30;;;;;;;;;;5096379;28;20040;-72
2022/12/27 15:18:29;;;;;;;3.17;2.20;;;;;;;;;;5077939;28;20040;-72
2022/12/27 15:21:03;;;;;;;3.55;1.92;;;;;;;;;;5077954;28;20458;-73
2022/12/27 15:23:41;;;;;;;3.78;2.15;;;;;;;;;;5096354;28;20376;-72
2022/12/27 15:26:33;;;;;;;2.75;1.92;;;;;;;;;;5096180;28;20048;-72
2022/12/27 15:29:07;;;;;;;4.57;2.03;;;;;;;;;;5091178;28;20048;-73
2022/12/27 15:31:44;;;;;;;2.53;1.90;;;;;;;;;;5096209;28;20040;-72
2022/12/27 15:34:16;;;;;;;3.45;2.42;;;;;;;;;;5096007;28;20044;-72
2022/12/27 15:36:42;;;;;;;3.38;2.60;;;;;;;;;;5095653;28;20085;-72
2022/12/27 15:39:26;;;;;;;3.85;2.65;;;;;;;;;;5095315;28;20097;-72
2022/12/27 15:42:12;;;;;;;4.18;2.83;;;;;;;;;;5095797;28;20032;-72
2022/12/27 15:44:50;;;;;;;2.60;2.40;;;;;;;;;;5038466;28;20035;-73
2022/12/27 15:47:27;;;;;;;4.88;2.83;;;;;;;;;;5093348;28;20043;-73
2022/12/27 15:50:11;;;;;;;3.70;2.58;;;;;;;;;;5092968;28;20052;-73
2022/12/27 15:52:55;;;;;;;4.93;3.05;;;;;;;;;;5089112;28;20043;-71
2022/12/27 15:55:46;;;;;;;4.95;1.67;;;;;;;;;;5054608;28;20112;-71
2022/12/27 15:58:17;;;;;;;5.05;3.03;;;;;;;;;;5033069;28;20072;-71
2022/12/27 16:00:43;;;;;;;6.05;3.45;;;;;;;;;;5072450;28;20041;-71
2022/12/27 16:03:30;;;;;;;4.88;3.08;;;;;;;;;;5073896;28;20033;-71
2022/12/27 16:05:56;;;;;;;4.03;2.90;;;;;;;;;;5076536;28;20080;-72
2022/12/27 16:08:33;;;;;;;3.28;2.42;;;;;;;;;;5072106;28;20377;-71
2022/12/27 16:11:00;;;;;;;6.45;2.72;;;;;;;;;;5072235;28;20795;-72
2022/12/27 16:13:29;;;;;;;5.18;2.97;;;;;;;;;;5072384;28;20041;-72
2022/12/27 16:15:55;;;;;;;10.27;2.83;;;;;;;;;;5072118;28;20047;-72
2022/12/27 16:18:20;;;;;;;6.18;3.22;;;;;;;;;;5072170;28;20115;-72
2022/12/27 16:20:59;;;;;;;4.70;3.42;;;;;;;;;;5073616;28;20045;-72
2022/12/27 16:23:26;;;;;;;5.68;3.17;;;;;;;;;;5075315;28;20033;-72
2022/12/27 16:29:31;;;;;;;6.22;3.38;;;;;;;;;;5075188;28;20163;-72
2022/12/27 16:35:32;;;;;;;6.30;3.05;;;;;;;;;;5075047;28;20388;-72
2022/12/27 16:52:13;;;;;;;4.15;3.05;;;;;;;;;;5013096;28;20155;-72
2022/12/27 16:58:18;;;;;;;3.60;2.53;;;;;;;;;;5012905;28;20029;-71
2022/12/27 20:05:22;;;;;;;14.57;8.88;;;;;;;;;;5079671;28;20185;-71
2022/12/27 20:07:47;;;;;;;13.05;8.35;;;;;;;;;;5049494;28;20055;-72
2022/12/27 20:10:13;;;;;;;16.35;8.63;;;;;;;;;;5052378;28;20484;-72
2022/12/27 20:12:39;;;;;;;13.73;8.35;;;;;;;;;;5052303;28;20031;-72
2022/12/27 20:15:05;;;;;;;18.08;9.32;;;;;;;;;;5052042;28;20045;-72
2022/12/27 20:17:31;;;;;;;20.70;12.43;;;;;;;;;;5052151;28;20060;-72
2022/12/27 20:19:57;;;;;;;20.25;12.45;;;;;;;;;;5052005;28;20106;-72
2022/12/27 20:22:22;;;;;;;18.15;10.02;;;;;;;;;;5055322;28;20524;-72
2022/12/27 20:24:47;;;;;;;19.15;10.45;;;;;;;;;;5055006;28;20037;-72
2022/12/27 20:30:48;;;;;;;19.48;9.35;;;;;;;;;;5054917;28;20040;-72
2022/12/27 20:36:50;;;;;;;16.10;9.65;;;;;;;;;;5055101;28;20090;-72
2022/12/27 20:42:51;;;;;;;17.48;10.32;;;;;;;;;;5054950;28;20064;-72
2022/12/27 20:48:52;;;;;;;34.25;15.70;;;;;;;;;;5054837;28;20368;-72
2022/12/27 20:54:53;;;;;;;22.50;12.60;;;;;;;;;;5055028;28;20036;-69
2022/12/27 21:00:53;;;;;;;21.85;12.85;;;;;;;;;;5054318;28;20456;-70
2022/12/27 21:10:29;;;;;;;21.95;12.85;;;;;;;;;;5054485;28;20130;-70
2022/12/27 21:16:30;;;;;;;23.67;13.10;;;;;;;;;;5054369;28;20051;-70
2022/12/27 21:21:59;;;;;;;26.15;14.60;;;;;;;;;;5050381;28;20041;-69
2022/12/27 21:24:24;;;;;;;29.90;16.67;;;;;;;;;;5032189;28;20082;-70
2022/12/27 21:26:49;;;;;;;24.60;14.00;;;;;;;;;;5048700;28;20460;-70
2022/12/27 21:29:18;;;;;;;23.55;13.40;;;;;;;;;;5049217;28;20587;-70
2022/12/27 21:31:43;;;;;;;24.67;15.43;;;;;;;;;;5049006;28;20028;-70
2022/12/27 21:34:08;;;;;;;27.20;14.45;;;;;;;;;;5048854;28;20563;-70
2022/12/27 21:36:34;;;;;;;36.63;18.00;;;;;;;;;;5049123;28;20372;-70
2022/12/27 21:39:03;;;;;;;36.40;19.25;;;;;;;;;;5048903;28;20418;-70
2022/12/27 21:41:30;;;;;;;31.65;17.75;;;;;;;;;;5048721;28;20037;-70
2022/12/27 21:43:56;;;;;;;30.98;16.20;;;;;;;;;;5048850;28;20041;-70
2022/12/27 21:46:25;;;;;;;30.55;16.67;;;;;;;;;;5030750;28;20037;-70
2022/12/27 21:48:54;;;;;;;31.52;15.98;;;;;;;;;;5049003;28;20136;-70
2022/12/27 21:51:19;;;;;;;21.27;12.30;;;;;;;;;;5049001;28;20067;-70
2022/12/27 21:53:45;;;;;;;19.45;10.90;;;;;;;;;;5031648;28;20121;-70
2022/12/27 21:56:11;;;;;;;33.95;16.35;;;;;;;;;;5031384;28;20527;-70
2022/12/27 21:58:38;;;;;;;25.83;13.70;;;;;;;;;;5049211;28;20048;-70
2022/12/27 22:01:09;;;;;;;23.73;12.48;;;;;;;;;;5045997;28;20045;-70
2022/12/27 22:03:35;;;;;;;22.27;11.30;;;;;;;;;;5048213;28;20037;-70
2022/12/27 22:06:27;;;;;;;22.13;11.38;;;;;;;;;;5048376;28;20037;-70
2022/12/27 22:08:53;;;;;;;21.00;12.63;;;;;;;;;;5043454;28;20131;-70
2022/12/27 22:11:20;;;;;;;29.10;14.35;;;;;;;;;;5030350;28;20071;-70
2022/12/27 22:13:45;;;;;;;32.05;15.20;;;;;;;;;;5048566;28;20129;-70
2022/12/27 22:16:12;;;;;;;31.08;15.00;;;;;;;;;;5047224;28;20120;-70
2022/12/27 22:18:41;;;;;;;30.80;14.73;;;;;;;;;;5047737;28;20072;-70
2022/12/27 22:21:08;;;;;;;27.52;13.02;;;;;;;;;;5050656;28;20031;-72
2022/12/27 22:23:35;;;;;;;20.27;11.32;;;;;;;;;;5053021;28;20049;-72
2022/12/27 22:26:00;;;;;;;23.73;11.43;;;;;;;;;;5053450;28;20477;-72
2022/12/27 22:28:27;;;;;;;24.85;12.10;;;;;;;;;;5053430;28;20064;-72
2022/12/27 22:30:53;;;;;;;36.05;14.80;;;;;;;;;;5052864;28;20086;-72
2022/12/27 22:33:18;;;;;;;30.85;14.18;;;;;;;;;;5053337;28;20044;-72
2022/12/27 22:35:43;;;;;;;27.88;14.75;;;;;;;;;;5053259;28;20069;-72
2022/12/27 22:38:09;;;;;;;34.55;15.57;;;;;;;;;;5053315;28;20061;-72
2022/12/27 22:40:34;;;;;;;22.95;12.40;;;;;;;;;;5053021;28;20481;-72
2022/12/27 22:43:00;;;;;;;21.17;12.27;;;;;;;;;;5053186;28;20025;-72
2022/12/27 22:45:26;;;;;;;29.38;14.82;;;;;;;;;;5053039;28;20087;-72
2022/12/27 22:47:51;;;;;;;29.65;13.90;;;;;;;;;;5053173;28;20545;-72
2022/12/27 22:50:17;;;;;;;29.45;14.02;;;;;;;;;;5035196;28;20095;-73
2022/12/27 22:52:43;;;;;;;24.88;13.40;;;;;;;;;;5053091;28;20116;-73
2022/12/27 22:55:08;;;;;;;26.45;12.35;;;;;;;;;;5053144;28;20044;-72
2022/12/27 22:57:33;;;;;;;20.48;11.00;;;;;;;;;;5052874;28;20041;-72
2022/12/27 22:59:59;;;;;;;20.08;11.05;;;;;;;;;;5053126;28;20047;-71
2022/12/27 23:02:24;;;;;;;18.33;9.98;;;;;;;;;;5053323;28;20021;-69
2022/12/27 23:04:49;;;;;;;19.25;11.13;;;;;;;;;;5056911;28;20068;-69
2022/12/27 23:07:18;;;;;;;18.88;10.27;;;;;;;;;;5041080;28;20042;-70
2022/12/27 23:09:44;;;;;;;18.77;9.70;;;;;;;;;;5036575;28;20052;-70
2022/12/27 23:12:10;;;;;;;20.83;11.05;;;;;;;;;;5036553;28;20116;-70
2022/12/27 23:14:35;;;;;;;18.88;10.05;;;;;;;;;;5036697;28;20100;-69
2022/12/27 23:17:01;;;;;;;16.05;10.10;;;;;;;;;;5037000;28;20045;-69
2022/12/27 23:19:26;;;;;;;17.45;10.57;;;;;;;;;;5036534;28;20485;-69
2022/12/27 23:21:51;;;;;;;22.08;11.23;;;;;;;;;;5036788;28;20033;-69
2022/12/27 23:24:17;;;;;;;18.48;10.55;;;;;;;;;;5036505;28;20033;-69
2022/12/27 23:26:42;;;;;;;19.88;10.30;;;;;;;;;;5036506;28;20469;-69
2022/12/27 23:29:10;;;;;;;20.65;10.68;;;;;;;;;;5036478;28;20076;-68
2022/12/27 23:31:35;;;;;;;20.45;10.40;;;;;;;;;;5036370;28;20045;-68
2022/12/27 23:34:00;;;;;;;16.33;9.13;;;;;;;;;;5036189;28;20037;-69
2022/12/27 23:36:26;;;;;;;19.40;10.05;;;;;;;;;;5036407;28;20056;-68
2022/12/27 23:38:51;;;;;;;20.17;10.60;;;;;;;;;;5036160;28;20045;-69
2022/12/27 23:41:18;;;;;;;26.42;12.52;;;;;;;;;;5036140;28;20033;-69
2022/12/27 23:43:43;;;;;;;31.35;14.43;;;;;;;;;;5036222;28;20417;-69
2022/12/27 23:46:13;;;;;;;25.65;12.50;;;;;;;;;;5036111;28;20033;-69
2022/12/27 23:48:39;;;;;;;25.98;11.43;;;;;;;;;;5018300;28;20041;-69
2022/12/27 23:51:04;;;;;;;20.73;12.23;;;;;;;;;;5035968;28;20072;-69
2022/12/27 23:53:30;;;;;;;24.75;13.05;;;;;;;;;;5035982;28;20030;-68
2022/12/27 23:55:58;;;;;;;20.58;11.65;;;;;;;;;;5036137;28;20048;-68
2022/12/27 23:58:24;;;;;;;23.88;12.82;;;;;;;;;;5035910;28;20556;-68
